This is the latest recevied weather packets stored in our database for station/object N0ZRD-10. If no packets are shown the sender has not sent any weather packets the latest 10 day(s).
| Time | Temp. | Humidity | Pressure | Rain* | Wind** | Luminosity | Snow |
|---|---|---|---|---|---|---|---|
| 1777595725 | 5° C | 40% | - | 0 mm | - | - | - |
| 1777595125 | 5° C | 40% | - | 0 mm | - | - | - |
| 1777594523 | 5.56° C | 39% | - | 0 mm | - | - | - |
| 1777592720 | 6.11° C | 38% | - | 0 mm | - | - | - |
| 1777590312 | 6.67° C | 38% | - | 0 mm | - | - | - |
| 1777589110 | 6.67° C | 37% | - | 0 mm | - | - | - |
| 1777587908 | 6.11° C | 37% | - | 0 mm | - | - | - |
| 1777587307 | 7.22° C | 36% | - | 0 mm | - | - | - |
| 1777586706 | 6.11° C | 38% | - | 0 mm | - | - | - |
| 1777585504 | 7.22° C | 33% | - | 0 mm | - | - | - |
| 1777584903 | 7.22° C | 35% | - | 0 mm | - | - | - |
| 1777584303 | 7.22° C | 37% | - | 0 mm | - | - | - |
| 1777583701 | 7.78° C | 34% | - | 0 mm | - | - | - |
| 1777583100 | 7.22° C | 34% | - | 0 mm | - | - | - |
| 1777581898 | 6.67° C | 35% | - | 0 mm | - | - | - |
| 1777581298 | 6.67° C | 36% | - | 0 mm | - | - | - |
| 1777580696 | 7.22° C | 34% | - | 0 mm | - | - | - |
| 1777580096 | 7.22° C | 34% | - | 0 mm | - | - | - |
| 1777579495 | 6.67° C | 39% | - | 0 mm | - | - | - |
| 1777578894 | 7.22° C | 33% | - | 0 mm | - | - | - |
| 1777578292 | 6.67° C | 34% | - | 0 mm | - | - | - |
| 1777577691 | 6.11° C | 37% | - | 0 mm | - | - | - |
| 1777577090 | 6.67° C | 35% | - | 0 mm | - | - | - |
| 1777576490 | 6.11° C | 36% | - | 0 mm | - | - | - |
| 1777574686 | 5.56° C | 37% | - | 0 mm | - | - | - |
* Rain latest hour (hover to see other rain measurements)
** Current wind speed in m/s (hover to see current wind gust speed)